Time;durP1;ratioP1;P1;durP2;ratioP2;P2;SDS_P1;SDS_P2;PMS_P1;PMS_P2;Temp;Humidity;BMP_temperature;BMP_pressure;BME280_temperature;BME280_humidity;BME280_pressure;Samples;Min_cycle;Max_cycle;Signal;HPM_P1;HPM_P2
2023/12/27 00:00:52;;;;;;;2.72;0.90;;;12.80;69.80;;;;;;2263430;56;20967;-67
2023/12/27 00:03:18;;;;;;;3.70;0.85;;;12.80;69.80;;;;;;2253067;55;20911;-68
2023/12/27 00:05:45;;;;;;;3.15;0.90;;;12.80;69.80;;;;;;2261063;56;21075;-68
2023/12/27 00:08:11;;;;;;;4.68;1.10;;;12.80;69.80;;;;;;2282686;56;20933;-68
2023/12/27 00:10:37;;;;;;;6.37;0.95;;;12.80;69.80;;;;;;2284803;55;21002;-67
2023/12/27 00:13:06;;;;;;;4.22;1.08;;;12.80;69.90;;;;;;2507488;54;20941;-67
2023/12/27 00:15:34;;;;;;;4.18;1.10;;;12.70;69.80;;;;;;2286493;57;21006;-68
2023/12/27 00:18:02;;;;;;;3.08;0.90;;;12.80;69.90;;;;;;2284744;57;20929;-68
2023/12/27 00:20:28;;;;;;;3.30;1.00;;;12.70;69.90;;;;;;2285870;57;20918;-69
2023/12/27 00:22:59;;;;;;;3.03;0.90;;;12.70;69.90;;;;;;2519455;54;21821;-68
2023/12/27 00:25:25;;;;;;;5.45;1.42;;;12.70;70.50;;;;;;2520546;55;20945;-67
2023/12/27 00:27:54;;;;;;;3.90;1.00;;;12.70;69.80;;;;;;2285407;55;20967;-67
2023/12/27 00:30:21;;;;;;;3.78;0.93;;;12.70;69.70;;;;;;2505839;54;20910;-69
2023/12/27 00:32:48;;;;;;;3.37;0.93;;;12.70;69.90;;;;;;2275014;55;20961;-67
2023/12/27 00:35:14;;;;;;;5.30;1.27;;;12.70;70.00;;;;;;2285689;55;20933;-69
2023/12/27 00:37:40;;;;;;;3.40;1.10;;;12.70;70.00;;;;;;2286249;55;20985;-68
2023/12/27 00:40:07;;;;;;;4.80;0.93;;;12.70;70.00;;;;;;2285334;57;20921;-68
2023/12/27 00:42:34;;;;;;;3.15;1.10;;;12.70;70.00;;;;;;2286131;55;20993;-67
2023/12/27 00:45:00;;;;;;;4.22;1.05;;;12.60;70.00;;;;;;2519988;54;20941;-67
2023/12/27 00:47:26;;;;;;;3.67;0.85;;;12.60;69.90;;;;;;2520877;54;21253;-69
2023/12/27 00:49:53;;;;;;;2.83;1.00;;;12.60;69.90;;;;;;2275034;55;21745;-68
2023/12/27 00:52:19;;;;;;;3.30;1.05;;;12.60;69.80;;;;;;2286138;57;21051;-69
2023/12/27 00:54:45;;;;;;;3.85;1.10;;;12.60;69.80;;;;;;2287126;55;21793;-67
2023/12/27 00:57:11;;;;;;;2.58;1.10;;;12.60;69.80;;;;;;2271279;55;21030;-68
2023/12/27 00:59:38;;;;;;;3.87;1.10;;;12.60;69.80;;;;;;2280442;55;21033;-68
2023/12/27 01:02:08;;;;;;;4.60;1.35;;;12.60;69.80;;;;;;2285231;56;20937;-69
2023/12/27 01:04:34;;;;;;;2.37;0.90;;;12.60;69.80;;;;;;2518996;54;21644;-68
2023/12/27 01:07:00;;;;;;;5.50;1.20;;;12.60;69.90;;;;;;2519216;55;21474;-69
2023/12/27 01:09:27;;;;;;;3.80;1.35;;;12.60;70.00;;;;;;2284206;55;20999;-67
2023/12/27 01:11:53;;;;;;;4.87;1.00;;;12.50;69.90;;;;;;2511221;54;20941;-68
2023/12/27 01:14:20;;;;;;;3.72;0.98;;;12.50;69.90;;;;;;2284024;55;21025;-68
2023/12/27 01:16:46;;;;;;;6.12;1.00;;;12.50;69.90;;;;;;2277807;55;20997;-68
2023/12/27 01:19:13;;;;;;;3.15;0.88;;;12.50;69.90;;;;;;2517974;55;21018;-67
2023/12/27 01:21:39;;;;;;;3.00;0.88;;;12.50;69.90;;;;;;2273303;55;20946;-67
2023/12/27 01:24:08;;;;;;;4.00;1.15;;;12.50;69.80;;;;;;2285865;55;20926;-67
2023/12/27 01:26:36;;;;;;;2.28;0.90;;;12.50;69.80;;;;;;2286066;57;20954;-68
2023/12/27 01:29:02;;;;;;;2.12;0.73;;;12.50;69.70;;;;;;2285391;55;20930;-67
2023/12/27 01:31:29;;;;;;;3.83;0.93;;;12.40;69.50;;;;;;2520620;54;20994;-68
2023/12/27 01:33:55;;;;;;;4.10;1.15;;;12.50;69.50;;;;;;2519196;54;20978;-66
2023/12/27 01:36:24;;;;;;;2.62;1.12;;;12.40;69.30;;;;;;2524382;54;20972;-68
2023/12/27 01:38:52;;;;;;;2.37;0.80;;;12.40;69.30;;;;;;2286908;55;20945;-68
2023/12/27 01:41:19;;;;;;;2.17;0.90;;;12.30;69.10;;;;;;2285265;57;21020;-68
2023/12/27 01:43:46;;;;;;;3.15;0.90;;;12.30;69.10;;;;;;2286453;55;20934;-67
2023/12/27 01:46:12;;;;;;;3.42;0.93;;;12.20;69.10;;;;;;2519224;55;20946;-68
2023/12/27 01:48:39;;;;;;;2.60;0.90;;;12.20;69.10;;;;;;2286466;55;21018;-68
2023/12/27 01:51:06;;;;;;;4.35;1.00;;;12.20;69.10;;;;;;2518402;55;21077;-68
2023/12/27 01:53:34;;;;;;;4.90;1.00;;;12.10;69.00;;;;;;2286140;57;20930;-67
2023/12/27 01:56:00;;;;;;;2.10;0.90;;;12.10;69.10;;;;;;2520540;55;20986;-69
2023/12/27 01:58:26;;;;;;;2.33;0.90;;;12.10;69.20;;;;;;2285295;55;20937;-67
2023/12/27 02:00:52;;;;;;;3.20;0.90;;;12.00;69.20;;;;;;2520586;54;20988;-69
2023/12/27 02:03:21;;;;;;;3.97;0.90;;;12.00;69.30;;;;;;2519920;54;21332;-68
2023/12/27 02:05:49;;;;;;;3.37;0.95;;;12.00;69.30;;;;;;2519806;54;20990;-67
2023/12/27 02:08:15;;;;;;;2.75;0.80;;;11.90;69.20;;;;;;2519606;55;20930;-68
2023/12/27 02:10:45;;;;;;;3.20;1.05;;;11.90;69.20;;;;;;2286187;56;20926;-68
2023/12/27 02:13:11;;;;;;;3.50;0.95;;;11.90;69.00;;;;;;2285694;57;20957;-68
2023/12/27 02:15:38;;;;;;;2.60;0.90;;;11.80;69.10;;;;;;2519156;55;20933;-68
2023/12/27 02:18:05;;;;;;;2.47;0.80;;;11.80;69.10;;;;;;2272821;55;21022;-68
2023/12/27 02:20:32;;;;;;;3.97;1.10;;;11.80;69.10;;;;;;2286158;57;21359;-68
2023/12/27 02:22:59;;;;;;;3.60;1.05;;;11.80;69.10;;;;;;2508142;54;20950;-67
2023/12/27 02:25:25;;;;;;;2.47;0.80;;;11.70;69.00;;;;;;2274369;55;20945;-67
2023/12/27 02:27:51;;;;;;;1.48;0.60;;;11.70;69.00;;;;;;2509081;54;21006;-68
2023/12/27 02:30:20;;;;;;;2.28;0.80;;;11.60;68.80;;;;;;2280598;55;21804;-68
2023/12/27 02:32:47;;;;;;;3.12;0.82;;;11.60;68.90;;;;;;2277693;55;21014;-67
2023/12/27 02:35:14;;;;;;;1.83;0.70;;;11.60;68.80;;;;;;2290787;55;20913;-67
2023/12/27 02:37:40;;;;;;;2.55;0.80;;;11.50;68.70;;;;;;2520138;54;20982;-67
2023/12/27 02:40:07;;;;;;;2.58;0.80;;;11.50;68.80;;;;;;2285605;57;21407;-67
2023/12/27 02:42:36;;;;;;;2.17;0.68;;;11.40;69.50;;;;;;2285596;57;20957;-68
2023/12/27 02:45:02;;;;;;;1.73;0.52;;;11.40;68.90;;;;;;2286212;55;20942;-68
2023/12/27 02:47:29;;;;;;;2.58;0.60;;;11.40;69.00;;;;;;2518846;54;20921;-67
2023/12/27 02:49:58;;;;;;;1.45;0.57;;;11.30;68.90;;;;;;2519724;55;21182;-67
2023/12/27 02:52:27;;;;;;;3.62;0.90;;;11.30;68.90;;;;;;2285297;57;20994;-68
2023/12/27 02:54:55;;;;;;;2.70;0.93;;;11.20;68.80;;;;;;2285950;55;20926;-68
2023/12/27 02:57:23;;;;;;;2.72;1.00;;;11.20;69.00;;;;;;2520097;54;21893;-67
2023/12/27 02:59:49;;;;;;;3.97;0.90;;;11.20;69.10;;;;;;2519726;54;20926;-67
2023/12/27 03:02:18;;;;;;;2.67;0.95;;;11.20;69.10;;;;;;2517986;55;20942;-68
2023/12/27 03:04:44;;;;;;;2.37;0.80;;;11.10;68.90;;;;;;2273146;55;20945;-67
2023/12/27 03:07:11;;;;;;;3.17;0.80;;;11.10;69.10;;;;;;2284876;57;20949;-68
2023/12/27 03:09:38;;;;;;;2.53;0.80;;;11.10;69.10;;;;;;2286293;55;21811;-68
2023/12/27 03:12:05;;;;;;;1.98;0.77;;;11.10;69.10;;;;;;2520015;54;20954;-68
2023/12/27 03:14:31;;;;;;;3.67;1.00;;;11.00;69.10;;;;;;2260922;56;20978;-68
2023/12/27 03:16:59;;;;;;;4.18;1.00;;;11.00;69.10;;;;;;2260375;56;21033;-67
2023/12/27 03:19:26;;;;;;;1.67;0.62;;;11.00;69.10;;;;;;2275414;55;21550;-68
2023/12/27 03:21:53;;;;;;;2.87;0.65;;;11.00;69.10;;;;;;2281192;55;20946;-67
2023/12/27 03:24:22;;;;;;;3.60;0.80;;;10.90;69.00;;;;;;2277549;55;21089;-68
2023/12/27 03:26:51;;;;;;;3.67;0.77;;;10.90;69.00;;;;;;2520590;55;21269;-68
2023/12/27 03:29:18;;;;;;;2.10;0.73;;;10.90;68.90;;;;;;2285574;57;20962;-68
2023/12/27 03:31:44;;;;;;;2.70;0.80;;;10.80;69.00;;;;;;2286597;57;20932;-67
2023/12/27 03:34:10;;;;;;;2.30;0.73;;;10.80;69.00;;;;;;2285249;57;20966;-66
2023/12/27 03:36:37;;;;;;;5.32;0.90;;;10.80;69.00;;;;;;2528523;54;21027;-66
2023/12/27 03:39:03;;;;;;;8.25;3.87;;;10.70;68.90;;;;;;2286368;56;21685;-68
2023/12/27 03:41:29;;;;;;;8.40;3.65;;;10.70;68.90;;;;;;2519112;54;20890;-68
2023/12/27 03:43:58;;;;;;;6.82;2.90;;;10.70;68.90;;;;;;2285848;55;20998;-68
2023/12/27 03:46:27;;;;;;;5.18;2.30;;;10.70;69.00;;;;;;2286030;57;21679;-67
2023/12/27 03:48:54;;;;;;;4.18;1.50;;;10.60;68.90;;;;;;2286242;55;21482;-67
2023/12/27 03:51:22;;;;;;;2.60;1.33;;;10.60;68.90;;;;;;2287448;55;22146;-67
2023/12/27 03:53:48;;;;;;;5.30;1.30;;;10.60;69.00;;;;;;2273728;55;20933;-68
2023/12/27 03:56:14;;;;;;;3.58;0.90;;;10.60;69.10;;;;;;2520351;54;21466;-66
2023/12/27 03:58:45;;;;;;;2.72;0.90;;;10.60;69.10;;;;;;2286287;57;20997;-68
2023/12/27 04:01:11;;;;;;;2.10;1.00;;;10.50;68.90;;;;;;2519317;55;20957;-67
2023/12/27 04:03:37;;;;;;;3.42;1.05;;;10.50;69.10;;;;;;2520893;55;20926;-68
2023/12/27 04:06:04;;;;;;;4.78;1.48;;;10.50;69.10;;;;;;2286259;55;20993;-68
2023/12/27 04:08:31;;;;;;;2.85;1.10;;;10.40;69.00;;;;;;2285650;55;20921;-68
2023/12/27 04:10:57;;;;;;;2.47;1.00;;;10.40;69.00;;;;;;2285961;55;20921;-67
2023/12/27 04:13:24;;;;;;;2.00;0.80;;;10.40;69.00;;;;;;2285398;57;20965;-69
2023/12/27 04:15:50;;;;;;;2.35;0.90;;;10.40;69.00;;;;;;2520713;54;20926;-68
2023/12/27 04:18:16;;;;;;;2.47;1.00;;;10.40;69.00;;;;;;2286491;56;20930;-68
2023/12/27 04:20:43;;;;;;;2.10;0.77;;;10.40;68.90;;;;;;2286484;55;21030;-67
2023/12/27 04:23:10;;;;;;;3.50;1.30;;;10.30;68.70;;;;;;2515549;54;21051;-67
2023/12/27 04:25:37;;;;;;;4.30;1.33;;;10.30;68.70;;;;;;2276002;55;21036;-68
2023/12/27 04:28:03;;;;;;;2.65;0.98;;;10.20;68.60;;;;;;2520204;54;20906;-67
2023/12/27 04:30:30;;;;;;;3.05;1.00;;;10.20;68.60;;;;;;2519406;54;21792;-67
2023/12/27 04:33:00;;;;;;;2.95;1.00;;;10.20;68.50;;;;;;2520148;54;20906;-67
2023/12/27 04:35:26;;;;;;;3.92;1.35;;;10.10;68.30;;;;;;2285782;55;20913;-68
2023/12/27 04:37:57;;;;;;;3.55;1.30;;;10.10;68.40;;;;;;2285944;55;20966;-68
2023/12/27 04:40:26;;;;;;;3.70;1.70;;;10.10;68.30;;;;;;2520215;54;20925;-67
2023/12/27 04:42:53;;;;;;;6.05;1.90;;;10.00;68.30;;;;;;2519987;54;21045;-68
2023/12/27 04:45:19;;;;;;;2.85;1.70;;;10.00;68.50;;;;;;2520129;54;20959;-69
2023/12/27 04:47:46;;;;;;;3.05;1.37;;;9.90;69.50;;;;;;2287060;55;20906;-68
2023/12/27 04:50:12;;;;;;;3.70;1.35;;;9.90;69.60;;;;;;2519205;54;20918;-67
2023/12/27 04:52:40;;;;;;;2.22;1.05;;;9.80;69.60;;;;;;2286311;57;20918;-68
2023/12/27 04:55:07;;;;;;;2.12;0.80;;;9.90;69.70;;;;;;2286977;55;20986;-67
2023/12/27 04:57:36;;;;;;;2.37;1.05;;;9.80;69.70;;;;;;2286243;55;20989;-66
2023/12/27 05:00:04;;;;;;;1.87;0.90;;;9.80;70.50;;;;;;2520659;54;20909;-68
2023/12/27 05:02:33;;;;;;;2.92;0.90;;;9.70;69.80;;;;;;2519732;54;20997;-67
2023/12/27 05:05:00;;;;;;;2.85;0.98;;;9.70;69.80;;;;;;2525614;54;21786;-68
2023/12/27 05:07:26;;;;;;;2.80;0.85;;;9.70;70.00;;;;;;2514188;54;20938;-67
2023/12/27 05:09:54;;;;;;;3.53;1.00;;;9.70;70.10;;;;;;2520183;54;20901;-69
2023/12/27 05:12:22;;;;;;;2.08;0.90;;;9.70;70.20;;;;;;2520141;55;21417;-67
2023/12/27 05:14:48;;;;;;;2.22;1.10;;;9.70;70.30;;;;;;2286452;55;20906;-67
2023/12/27 05:17:14;;;;;;;1.60;0.70;;;9.60;70.30;;;;;;2286383;55;20945;-68
2023/12/27 05:19:41;;;;;;;2.58;0.70;;;9.60;70.40;;;;;;2524810;54;20976;-67
2023/12/27 05:22:09;;;;;;;3.50;0.80;;;9.70;70.50;;;;;;2288772;55;20945;-68
2023/12/27 05:24:36;;;;;;;2.67;0.80;;;9.60;70.50;;;;;;2285433;55;20949;-68
2023/12/27 05:27:02;;;;;;;4.85;0.95;;;9.70;70.70;;;;;;2285653;57;22430;-68
2023/12/27 05:29:28;;;;;;;4.55;1.10;;;9.60;70.60;;;;;;2286151;55;21298;-68
2023/12/27 05:31:55;;;;;;;3.10;0.80;;;9.70;71.40;;;;;;2286281;57;21391;-67
2023/12/27 05:34:21;;;;;;;1.83;0.70;;;9.70;70.70;;;;;;2289795;56;20957;-67
2023/12/27 05:36:48;;;;;;;2.10;0.80;;;9.60;70.70;;;;;;2290275;55;21066;-67
2023/12/27 05:39:14;;;;;;;1.85;0.77;;;9.70;70.80;;;;;;2274812;55;20965;-68
2023/12/27 05:41:42;;;;;;;2.58;0.93;;;9.60;70.90;;;;;;2285512;57;21006;-67
2023/12/27 05:44:08;;;;;;;2.90;1.05;;;9.70;70.80;;;;;;2506864;54;20942;-67
2023/12/27 05:46:37;;;;;;;4.18;1.23;;;9.60;70.80;;;;;;2520232;55;21190;-67
2023/12/27 05:49:04;;;;;;;2.78;0.98;;;9.60;70.70;;;;;;2285957;57;20957;-68
2023/12/27 05:51:31;;;;;;;4.97;1.48;;;9.60;70.90;;;;;;2285822;57;21763;-68
2023/12/27 05:57:25;;;;;;;4.60;2.37;;;9.70;70.50;;;;;;2520592;55;20954;-67
2023/12/27 05:59:51;;;;;;;5.18;3.35;;;9.70;71.00;;;;;;2519927;55;20994;-68
2023/12/27 06:02:18;;;;;;;6.70;3.53;;;9.70;70.90;;;;;;2520448;54;20993;-67
2023/12/27 06:04:45;;;;;;;6.03;3.87;;;9.70;70.90;;;;;;2285919;57;20933;-66
2023/12/27 06:07:12;;;;;;;5.35;2.97;;;9.70;71.00;;;;;;2483130;55;20967;-68
2023/12/27 06:09:39;;;;;;;4.57;2.42;;;9.70;71.00;;;;;;2483306;55;20935;-67
2023/12/27 06:12:09;;;;;;;5.30;2.70;;;9.70;70.90;;;;;;2256193;56;21047;-67
2023/12/27 06:14:36;;;;;;;5.00;2.12;;;9.70;71.60;;;;;;2509461;54;20958;-69
2023/12/27 06:17:08;;;;;;;5.28;2.45;;;9.70;70.90;;;;;;2286177;57;21721;-67
2023/12/27 06:19:37;;;;;;;4.00;2.03;;;9.70;70.90;;;;;;2520010;54;21496;-68
2023/12/27 06:22:04;;;;;;;6.22;1.83;;;9.70;70.90;;;;;;2502716;54;20983;-66
2023/12/27 06:24:31;;;;;;;2.50;1.30;;;9.70;71.00;;;;;;2286037;55;20989;-68
2023/12/27 06:26:57;;;;;;;3.78;1.30;;;9.70;71.00;;;;;;2520043;54;20942;-67
2023/12/27 06:29:23;;;;;;;3.05;1.40;;;9.70;71.00;;;;;;2520022;54;21018;-68
2023/12/27 06:31:50;;;;;;;4.20;1.60;;;9.70;71.00;;;;;;2520064;54;21596;-68
2023/12/27 06:34:18;;;;;;;3.50;1.45;;;9.70;71.00;;;;;;2520386;54;20934;-68
2023/12/27 06:36:47;;;;;;;3.25;1.40;;;9.70;70.90;;;;;;2520300;54;20941;-68
2023/12/27 06:39:14;;;;;;;3.15;1.35;;;9.70;70.80;;;;;;2255393;56;20983;-67
2023/12/27 06:41:40;;;;;;;3.90;1.37;;;9.70;70.70;;;;;;2484902;55;20994;-66
2023/12/27 06:44:06;;;;;;;2.83;1.30;;;9.70;70.70;;;;;;2257923;55;21286;-67
2023/12/27 06:46:35;;;;;;;3.05;1.30;;;9.70;70.70;;;;;;2255351;56;20975;-68
2023/12/27 06:49:02;;;;;;;2.72;1.05;;;9.70;70.70;;;;;;2255350;56;20986;-67
2023/12/27 06:51:28;;;;;;;3.22;1.20;;;9.60;70.60;;;;;;2255353;56;21787;-67
2023/12/27 06:53:54;;;;;;;3.50;1.30;;;9.60;70.50;;;;;;2255227;56;20959;-67
2023/12/27 06:56:21;;;;;;;2.95;1.35;;;9.60;70.50;;;;;;2255344;56;20958;-67
2023/12/27 06:58:47;;;;;;;5.82;1.90;;;9.60;70.50;;;;;;2256213;56;21378;-67
2023/12/27 07:01:16;;;;;;;3.33;1.58;;;9.60;70.40;;;;;;2262459;56;20999;-67
2023/12/27 07:03:43;;;;;;;4.37;2.15;;;9.60;70.30;;;;;;2255305;55;20962;-67
2023/12/27 07:06:10;;;;;;;4.28;1.70;;;9.60;70.50;;;;;;2241436;54;21075;-68
2023/12/27 07:08:36;;;;;;;3.50;1.75;;;9.60;70.50;;;;;;2481614;54;20962;-68
2023/12/27 07:11:03;;;;;;;3.08;1.60;;;9.50;70.40;;;;;;2261355;56;21169;-68
2023/12/27 07:13:29;;;;;;;3.05;1.37;;;9.50;70.50;;;;;;2485252;55;21889;-67
2023/12/27 07:15:55;;;;;;;4.75;1.50;;;9.50;70.50;;;;;;2264317;56;21008;-68
2023/12/27 07:18:22;;;;;;;4.32;1.90;;;9.50;70.50;;;;;;2254061;55;20982;-66
2023/12/27 07:20:48;;;;;;;3.08;1.42;;;9.50;70.40;;;;;;2465120;55;21033;-68
2023/12/27 07:23:14;;;;;;;3.30;1.80;;;9.50;70.40;;;;;;2255989;56;21022;-68
2023/12/27 07:25:40;;;;;;;3.90;1.25;;;9.40;70.30;;;;;;2255494;56;20974;-68
2023/12/27 07:28:07;;;;;;;2.90;1.27;;;9.40;71.00;;;;;;2483358;54;20950;-67
2023/12/27 07:30:33;;;;;;;2.65;1.40;;;9.40;70.30;;;;;;2482804;54;21463;-67
2023/12/27 07:32:59;;;;;;;3.87;2.12;;;9.40;70.20;;;;;;2260312;55;21015;-67
2023/12/27 07:35:26;;;;;;;4.50;1.60;;;9.40;70.10;;;;;;2484915;55;20955;-68
2023/12/27 07:37:53;;;;;;;2.72;1.35;;;9.40;70.10;;;;;;2257866;55;21022;-68
2023/12/27 07:40:19;;;;;;;3.55;1.70;;;9.30;70.00;;;;;;2483617;54;20959;-66
2023/12/27 07:42:51;;;;;;;3.85;1.62;;;9.30;70.10;;;;;;2255208;56;21034;-67
2023/12/27 07:45:20;;;;;;;2.90;1.43;;;9.30;70.00;;;;;;2256219;55;21310;-66
2023/12/27 07:47:47;;;;;;;3.30;1.50;;;9.30;70.20;;;;;;2482884;54;21596;-67
2023/12/27 07:50:14;;;;;;;3.78;1.52;;;9.30;70.30;;;;;;2261117;56;20998;-68
2023/12/27 07:52:40;;;;;;;4.82;1.95;;;9.20;70.20;;;;;;2484639;54;20962;-67
2023/12/27 07:55:07;;;;;;;5.20;2.50;;;9.20;70.20;;;;;;2255751;56;21029;-68
2023/12/27 07:57:34;;;;;;;7.10;2.95;;;9.20;70.20;;;;;;2255862;55;21046;-67
2023/12/27 08:00:02;;;;;;;6.57;2.85;;;9.20;70.30;;;;;;2245513;57;21449;-67
2023/12/27 08:02:28;;;;;;;5.22;2.67;;;9.20;70.30;;;;;;2482310;55;21014;-68
2023/12/27 08:04:57;;;;;;;4.18;2.22;;;9.10;70.30;;;;;;2247153;55;21081;-67
2023/12/27 08:07:23;;;;;;;5.22;2.22;;;9.20;70.40;;;;;;2496625;54;20935;-67
2023/12/27 08:09:50;;;;;;;6.75;2.45;;;9.10;70.30;;;;;;2253160;55;20999;-67
2023/12/27 08:12:16;;;;;;;3.15;1.60;;;9.10;70.40;;;;;;2483799;54;20988;-68
2023/12/27 08:14:43;;;;;;;5.30;1.85;;;9.10;70.30;;;;;;2263215;55;20940;-67
2023/12/27 08:17:10;;;;;;;5.65;1.50;;;9.10;70.30;;;;;;2261471;55;20963;-67
2023/12/27 08:19:36;;;;;;;4.25;1.62;;;9.10;71.00;;;;;;2495849;54;21055;-67
2023/12/27 08:22:03;;;;;;;3.67;1.95;;;9.10;70.40;;;;;;2262004;55;21042;-66
2023/12/27 08:24:30;;;;;;;4.45;1.20;;;9.00;70.30;;;;;;2255500;56;21372;-68
2023/12/27 08:26:56;;;;;;;3.78;1.20;;;9.00;70.40;;;;;;2483469;54;20963;-68
2023/12/27 08:29:22;;;;;;;3.28;1.70;;;9.00;70.50;;;;;;2259787;56;21077;-67
2023/12/27 08:31:50;;;;;;;4.28;1.55;;;9.00;70.50;;;;;;2486577;55;20970;-68
2023/12/27 08:34:57;;;;;;;4.62;2.45;;;9.00;70.50;;;;;;2483891;54;21062;-68
2023/12/27 08:37:25;;;;;;;3.55;1.77;;;9.00;70.10;;;;;;2255945;56;20990;-67
2023/12/27 08:39:52;;;;;;;3.83;1.60;;;9.00;70.50;;;;;;2483370;54;21011;-68
2023/12/27 08:42:18;;;;;;;5.18;1.70;;;9.00;70.60;;;;;;2486457;54;20966;-67
2023/12/27 08:44:44;;;;;;;2.62;1.40;;;9.00;70.60;;;;;;2485396;55;20973;-67
2023/12/27 08:47:12;;;;;;;3.53;1.30;;;9.00;70.70;;;;;;2483844;55;21095;-69
2023/12/27 08:49:39;;;;;;;3.60;1.37;;;9.00;70.70;;;;;;2484022;55;20958;-68
2023/12/27 08:52:05;;;;;;;4.87;1.90;;;9.00;70.80;;;;;;2255750;56;20978;-67
2023/12/27 08:54:32;;;;;;;4.25;1.70;;;9.00;70.80;;;;;;2483131;55;21557;-67
2023/12/27 08:56:58;;;;;;;5.93;1.80;;;9.00;70.80;;;;;;2255902;56;21579;-67
2023/12/27 08:59:28;;;;;;;3.92;1.80;;;9.00;70.90;;;;;;2483926;55;21067;-68
2023/12/27 09:01:55;;;;;;;4.85;2.20;;;9.00;70.90;;;;;;2252462;56;21365;-68
2023/12/27 09:04:21;;;;;;;3.95;1.70;;;9.00;71.10;;;;;;2244245;55;21835;-67
2023/12/27 09:06:50;;;;;;;3.90;2.20;;;9.00;71.30;;;;;;2489440;55;21334;-67
2023/12/27 09:09:16;;;;;;;3.45;1.62;;;9.10;71.60;;;;;;2255931;55;21524;-68
2023/12/27 09:11:43;;;;;;;4.20;1.62;;;9.10;71.70;;;;;;2483834;55;21752;-67
2023/12/27 09:14:10;;;;;;;3.42;1.58;;;9.10;71.80;;;;;;2483439;54;21017;-68
2023/12/27 09:16:36;;;;;;;3.67;1.40;;;9.20;72.10;;;;;;2489348;55;21472;-68
2023/12/27 09:19:02;;;;;;;4.50;1.73;;;9.20;72.20;;;;;;2260803;55;20942;-67
2023/12/27 09:21:29;;;;;;;3.95;1.67;;;9.20;72.30;;;;;;2255661;56;21488;-67
2023/12/27 09:23:55;;;;;;;4.07;2.28;;;9.30;72.40;;;;;;2255565;55;20987;-68
2023/12/27 09:26:22;;;;;;;4.15;2.30;;;9.30;72.50;;;;;;2248996;55;21021;-67
2023/12/27 09:28:49;;;;;;;5.60;2.70;;;9.40;72.70;;;;;;2253220;56;21730;-69
2023/12/27 09:31:15;;;;;;;10.07;5.18;;;9.40;72.70;;;;;;2484734;55;20980;-67
2023/12/27 09:33:42;;;;;;;8.65;4.90;;;9.50;72.90;;;;;;2259175;56;21647;-68
2023/12/27 09:36:09;;;;;;;10.43;5.78;;;9.60;72.90;;;;;;2255370;56;21406;-68
2023/12/27 09:38:37;;;;;;;11.57;7.20;;;9.60;72.90;;;;;;2255248;55;20954;-68
2023/12/27 09:41:04;;;;;;;14.77;9.65;;;9.70;72.90;;;;;;2263301;55;20962;-68
2023/12/27 09:43:31;;;;;;;18.17;10.18;;;9.70;72.80;;;;;;2256632;56;20947;-69
2023/12/27 09:45:57;;;;;;;12.88;7.53;;;9.80;72.90;;;;;;2255110;55;21006;-68
2023/12/27 09:48:25;;;;;;;8.95;5.30;;;9.80;72.80;;;;;;2258504;55;20983;-68
2023/12/27 09:50:51;;;;;;;7.82;4.00;;;9.90;72.90;;;;;;2269728;55;20966;-67
2023/12/27 09:53:17;;;;;;;7.00;3.75;;;9.90;72.80;;;;;;2251093;56;21299;-69
2023/12/27 09:55:44;;;;;;;5.80;2.85;;;10.00;71.70;;;;;;2260074;56;20998;-67
2023/12/27 09:58:14;;;;;;;5.35;2.92;;;10.10;71.70;;;;;;2256169;55;20950;-68
2023/12/27 10:00:43;;;;;;;7.28;3.05;;;10.10;71.50;;;;;;2256350;56;20979;-69
2023/12/27 10:03:09;;;;;;;6.12;2.70;;;10.10;71.40;;;;;;2260824;56;21022;-67
2023/12/27 10:05:53;;;;;;;4.87;2.50;;;10.20;71.40;;;;;;2261776;56;21456;-68
2023/12/27 10:08:19;;;;;;;;;;;10.20;71.10;;;;;;2487373;55;21022;-68
2023/12/27 10:10:46;;;;;;;6.40;2.20;;;10.30;70.40;;;;;;2255313;56;20129;-69
2023/12/27 10:13:15;;;;;;;5.32;2.75;;;10.30;71.40;;;;;;2483077;54;20966;-67
2023/12/27 10:15:41;;;;;;;5.90;2.60;;;10.30;71.30;;;;;;2483909;54;20963;-69
2023/12/27 10:18:08;;;;;;;7.50;3.22;;;10.40;71.40;;;;;;2255647;56;20927;-68
2023/12/27 10:20:36;;;;;;;6.95;2.60;;;10.40;71.40;;;;;;2262071;56;21521;-67
2023/12/27 10:23:03;;;;;;;6.00;2.33;;;10.40;71.30;;;;;;2482496;55;20947;-69
2023/12/27 10:25:30;;;;;;;8.50;2.90;;;10.40;71.30;;;;;;2260877;56;20963;-69
2023/12/27 10:27:57;;;;;;;5.72;2.55;;;10.50;71.40;;;;;;2265674;56;21006;-67
2023/12/27 10:30:28;;;;;;;5.00;2.42;;;10.50;71.50;;;;;;2519162;54;20957;-68
2023/12/27 10:33:01;;;;;;;6.47;2.30;;;10.50;71.40;;;;;;2518585;54;20966;-68
2023/12/27 10:35:27;;;;;;;5.85;2.60;;;10.60;71.50;;;;;;2519391;54;20969;-68
2023/12/27 10:38:06;;;;;;;5.68;2.30;;;10.60;71.70;;;;;;2519882;54;20965;-67
2023/12/27 10:40:35;;;;;;;5.22;2.60;;;10.70;71.50;;;;;;2519403;54;21005;-69
2023/12/27 10:43:02;;;;;;;6.93;3.62;;;10.70;71.70;;;;;;2284738;55;21527;-68
2023/12/27 10:45:29;;;;;;;5.97;2.92;;;10.80;71.90;;;;;;2276873;55;21010;-67
2023/12/27 10:47:59;;;;;;;5.40;2.45;;;10.80;71.90;;;;;;2286161;55;20958;-69
2023/12/27 10:50:27;;;;;;;5.57;2.62;;;10.90;71.90;;;;;;2529245;54;21024;-68
2023/12/27 10:53:03;;;;;;;7.78;2.97;;;10.90;72.10;;;;;;2518954;55;20941;-68
2023/12/27 10:55:30;;;;;;;5.90;2.33;;;11.00;72.30;;;;;;2520317;54;21004;-68
2023/12/27 10:57:56;;;;;;;5.97;2.40;;;11.10;72.70;;;;;;2286234;55;20933;-69
2023/12/27 11:00:23;;;;;;;3.75;1.98;;;11.10;72.90;;;;;;2506070;54;20938;-68
2023/12/27 11:02:50;;;;;;;5.25;2.45;;;11.20;73.10;;;;;;2517141;54;20942;-69
2023/12/27 11:05:18;;;;;;;5.40;2.25;;;11.30;73.10;;;;;;2285334;57;21486;-68
2023/12/27 11:07:44;;;;;;;3.97;1.70;;;11.40;73.20;;;;;;2520120;55;20918;-68
2023/12/27 11:10:19;;;;;;;4.75;1.70;;;11.50;73.30;;;;;;2285860;55;20914;-68
2023/12/27 11:12:52;;;;;;;3.75;1.80;;;11.60;73.30;;;;;;2520299;54;20930;-69
2023/12/27 11:15:18;;;;;;;;;;;11.70;73.30;;;;;;2523937;54;20913;-68
2023/12/27 11:17:45;;;;;;;5.72;1.55;;;11.80;72.20;;;;;;2519984;54;20056;-68
2023/12/27 11:20:12;;;;;;;4.85;1.70;;;11.80;73.50;;;;;;2286297;56;21006;-68
2023/12/27 11:22:39;;;;;;;4.90;1.90;;;11.90;73.60;;;;;;2519076;55;21013;-68
2023/12/27 11:25:05;;;;;;;4.93;1.92;;;12.00;73.70;;;;;;2289406;56;20949;-68
2023/12/27 11:27:32;;;;;;;5.10;1.85;;;12.10;73.70;;;;;;2507392;54;21480;-68
2023/12/27 11:30:01;;;;;;;4.15;1.80;;;12.20;73.60;;;;;;2284121;55;21041;-68
2023/12/27 11:32:27;;;;;;;4.18;1.90;;;12.20;73.30;;;;;;2285561;55;21874;-68
2023/12/27 11:34:55;;;;;;;4.30;1.92;;;12.30;73.20;;;;;;2519226;54;21219;-68
2023/12/27 11:37:22;;;;;;;4.55;1.70;;;12.30;72.90;;;;;;2520290;54;20965;-68
2023/12/27 11:39:51;;;;;;;3.12;1.40;;;12.40;72.80;;;;;;2286193;57;21724;-68
2023/12/27 11:42:17;;;;;;;3.92;1.70;;;12.50;72.80;;;;;;2510868;54;21018;-68
2023/12/27 11:44:54;;;;;;;4.82;1.83;;;12.50;72.90;;;;;;2278569;55;20974;-68
2023/12/27 11:47:20;;;;;;;4.95;1.55;;;12.50;72.50;;;;;;2285945;55;20957;-68
2023/12/27 11:50:19;;;;;;;3.62;1.80;;;12.60;72.70;;;;;;2285593;55;21005;-68
2023/12/27 11:52:47;;;;;;;4.30;1.90;;;12.60;71.90;;;;;;2289370;55;20918;-68
2023/12/27 11:55:18;;;;;;;4.68;1.92;;;12.70;72.80;;;;;;2519215;54;20949;-68
2023/12/27 11:57:45;;;;;;;4.82;2.30;;;12.70;72.70;;;;;;2495383;54;20999;-68
2023/12/27 12:00:12;;;;;;;6.78;2.40;;;12.80;72.60;;;;;;2255291;55;21053;-68
2023/12/27 12:02:47;;;;;;;4.97;2.17;;;12.80;72.40;;;;;;2487370;55;20962;-69
2023/12/27 12:05:29;;;;;;;4.60;2.35;;;12.90;72.20;;;;;;2509441;54;21042;-68
2023/12/27 12:08:25;;;;;;;4.57;2.25;;;12.90;72.20;;;;;;2258470;56;21002;-69
2023/12/27 12:11:11;;;;;;;4.95;2.28;;;13.00;71.60;;;;;;2255222;56;20950;-67
2023/12/27 12:13:39;;;;;;;5.43;2.37;;;13.00;71.80;;;;;;2255697;56;21010;-68
2023/12/27 12:16:08;;;;;;;7.93;2.67;;;13.00;72.30;;;;;;2483126;55;21360;-68
2023/12/27 12:18:35;;;;;;;7.32;2.72;;;13.10;71.90;;;;;;2260712;55;21014;-68
2023/12/27 12:21:03;;;;;;;5.40;2.30;;;13.10;71.80;;;;;;2255504;55;21503;-69
2023/12/27 12:23:33;;;;;;;8.05;2.50;;;13.10;71.70;;;;;;2261355;56;20970;-68
2023/12/27 12:26:00;;;;;;;5.35;2.83;;;13.10;71.60;;;;;;2483454;55;21010;-68
2023/12/27 12:28:30;;;;;;;7.32;3.28;;;13.20;71.70;;;;;;2489154;54;21034;-68
2023/12/27 12:31:03;;;;;;;6.10;2.78;;;13.20;71.70;;;;;;2254722;55;22216;-69
2023/12/27 12:33:34;;;;;;;6.12;3.33;;;13.20;71.40;;;;;;2256197;55;21029;-68
2023/12/27 12:36:00;;;;;;;6.97;3.03;;;13.20;71.40;;;;;;2256918;56;21003;-67
2023/12/27 12:38:28;;;;;;;7.65;3.33;;;13.20;71.50;;;;;;2260755;56;21444;-68
2023/12/27 12:40:54;;;;;;;6.03;3.40;;;13.20;71.50;;;;;;2257814;54;20943;-69
2023/12/27 12:43:20;;;;;;;6.82;3.72;;;13.20;71.50;;;;;;2258980;55;21776;-68
2023/12/27 12:45:47;;;;;;;6.40;3.22;;;13.20;71.50;;;;;;2482583;55;21796;-68
2023/12/27 12:48:13;;;;;;;6.75;2.97;;;13.30;71.60;;;;;;2500776;54;21497;-68
2023/12/27 12:50:40;;;;;;;6.15;3.22;;;13.30;71.50;;;;;;2530541;54;21020;-69
2023/12/27 12:53:16;;;;;;;6.43;3.62;;;13.40;71.60;;;;;;2294499;56;20947;-68
2023/12/27 12:55:44;;;;;;;7.25;3.62;;;13.30;70.90;;;;;;2294536;56;21473;-68